sensor_id;sensor_type;location;lat;lon;timestamp;pressure;altitude;pressure_sealevel;temperature;humidity
56604;BME280;42486;47.478;19.036;2022-09-03T00:01:25;100301.66;;;13.66;100.00
56604;BME280;42486;47.478;19.036;2022-09-03T00:04:32;100298.31;;;13.54;100.00
56604;BME280;42486;47.478;19.036;2022-09-03T00:14:05;100312.31;;;13.34;100.00
56604;BME280;42486;47.478;19.036;2022-09-03T00:17:20;100301.13;;;13.32;100.00
56604;BME280;42486;47.478;19.036;2022-09-03T00:20:29;100309.69;;;13.34;100.00
56604;BME280;42486;47.478;19.036;2022-09-03T00:23:35;100306.38;;;13.32;100.00
56604;BME280;42486;47.478;19.036;2022-09-03T00:26:39;100308.44;;;13.28;100.00
56604;BME280;42486;47.478;19.036;2022-09-03T00:29:46;100301.06;;;13.22;100.00
56604;BME280;42486;47.478;19.036;2022-09-03T00:32:55;100301.19;;;13.20;100.00
56604;BME280;42486;47.478;19.036;2022-09-03T00:39:03;100300.22;;;13.21;100.00
56604;BME280;42486;47.478;19.036;2022-09-03T00:48:46;100302.22;;;13.08;100.00
56604;BME280;42486;47.478;19.036;2022-09-03T00:55:36;100297.94;;;13.07;100.00
56604;BME280;42486;47.478;19.036;2022-09-03T01:02:19;100306.34;;;13.01;100.00
56604;BME280;42486;47.478;19.036;2022-09-03T01:05:28;100300.50;;;12.97;100.00
56604;BME280;42486;47.478;19.036;2022-09-03T01:08:50;100308.37;;;12.97;100.00
56604;BME280;42486;47.478;19.036;2022-09-03T01:18:34;100313.69;;;12.86;100.00
56604;BME280;42486;47.478;19.036;2022-09-03T01:21:48;100320.75;;;12.86;100.00
56604;BME280;42486;47.478;19.036;2022-09-03T01:25:48;100317.03;;;12.88;100.00
56604;BME280;42486;47.478;19.036;2022-09-03T01:31:56;100325.78;;;12.77;100.00
56604;BME280;42486;47.478;19.036;2022-09-03T01:38:46;100325.91;;;12.76;100.00
56604;BME280;42486;47.478;19.036;2022-09-03T01:42:06;100331.50;;;12.83;100.00
56604;BME280;42486;47.478;19.036;2022-09-03T01:45:25;100318.75;;;12.78;100.00
56604;BME280;42486;47.478;19.036;2022-09-03T01:51:58;100323.69;;;12.71;100.00
56604;BME280;42486;47.478;19.036;2022-09-03T01:58:34;100330.25;;;12.66;100.00
56604;BME280;42486;47.478;19.036;2022-09-03T02:01:45;100334.09;;;12.62;100.00
56604;BME280;42486;47.478;19.036;2022-09-03T02:05:06;100321.50;;;12.55;100.00
56604;BME280;42486;47.478;19.036;2022-09-03T02:08:11;100326.16;;;12.52;100.00
56604;BME280;42486;47.478;19.036;2022-09-03T02:11:13;100332.44;;;12.61;100.00
56604;BME280;42486;47.478;19.036;2022-09-03T02:14:17;100330.19;;;12.56;100.00
56604;BME280;42486;47.478;19.036;2022-09-03T02:17:22;100334.59;;;12.55;100.00
56604;BME280;42486;47.478;19.036;2022-09-03T02:20:26;100326.03;;;12.53;100.00
56604;BME280;42486;47.478;19.036;2022-09-03T02:23:30;100325.31;;;12.51;100.00
56604;BME280;42486;47.478;19.036;2022-09-03T02:26:35;100335.09;;;12.49;100.00
56604;BME280;42486;47.478;19.036;2022-09-03T02:29:38;100339.03;;;12.44;100.00
56604;BME280;42486;47.478;19.036;2022-09-03T02:32:42;100337.50;;;12.41;100.00
56604;BME280;42486;47.478;19.036;2022-09-03T02:35:44;100334.88;;;12.41;100.00
56604;BME280;42486;47.478;19.036;2022-09-03T02:38:48;100328.94;;;12.39;100.00
56604;BME280;42486;47.478;19.036;2022-09-03T02:41:53;100335.03;;;12.40;100.00
56604;BME280;42486;47.478;19.036;2022-09-03T02:44:59;100335.69;;;12.53;100.00
56604;BME280;42486;47.478;19.036;2022-09-03T02:48:04;100335.22;;;12.48;100.00
56604;BME280;42486;47.478;19.036;2022-09-03T02:51:06;100333.81;;;12.44;100.00
56604;BME280;42486;47.478;19.036;2022-09-03T02:54:15;100329.66;;;12.41;100.00
56604;BME280;42486;47.478;19.036;2022-09-03T02:57:21;100330.00;;;12.37;100.00
56604;BME280;42486;47.478;19.036;2022-09-03T03:00:28;100338.84;;;12.36;100.00
56604;BME280;42486;47.478;19.036;2022-09-03T03:03:32;100338.72;;;12.37;100.00
56604;BME280;42486;47.478;19.036;2022-09-03T03:06:35;100335.25;;;12.37;100.00
56604;BME280;42486;47.478;19.036;2022-09-03T03:09:37;100338.00;;;12.35;100.00
56604;BME280;42486;47.478;19.036;2022-09-03T03:12:40;100331.34;;;12.31;100.00
56604;BME280;42486;47.478;19.036;2022-09-03T03:15:43;100335.91;;;12.29;100.00
56604;BME280;42486;47.478;19.036;2022-09-03T03:18:46;100331.34;;;12.31;100.00
56604;BME280;42486;47.478;19.036;2022-09-03T03:21:50;100331.97;;;12.23;100.00
56604;BME280;42486;47.478;19.036;2022-09-03T03:24:53;100334.84;;;12.20;100.00
56604;BME280;42486;47.478;19.036;2022-09-03T03:27:58;100341.75;;;12.21;100.00
56604;BME280;42486;47.478;19.036;2022-09-03T03:31:08;100346.69;;;12.36;100.00
56604;BME280;42486;47.478;19.036;2022-09-03T03:34:11;100357.44;;;12.32;100.00
56604;BME280;42486;47.478;19.036;2022-09-03T03:37:13;100351.63;;;12.29;100.00
56604;BME280;42486;47.478;19.036;2022-09-03T03:40:16;100347.47;;;12.26;100.00
56604;BME280;42486;47.478;19.036;2022-09-03T03:43:19;100344.78;;;12.38;100.00
56604;BME280;42486;47.478;19.036;2022-09-03T03:46:23;100354.72;;;12.34;100.00
56604;BME280;42486;47.478;19.036;2022-09-03T03:49:27;100355.53;;;12.23;100.00
56604;BME280;42486;47.478;19.036;2022-09-03T03:52:30;100362.47;;;12.24;100.00
56604;BME280;42486;47.478;19.036;2022-09-03T03:55:34;100358.87;;;12.25;100.00
56604;BME280;42486;47.478;19.036;2022-09-03T03:58:37;100358.63;;;12.28;100.00
56604;BME280;42486;47.478;19.036;2022-09-03T04:01:43;100361.25;;;12.28;100.00
56604;BME280;42486;47.478;19.036;2022-09-03T04:04:47;100358.41;;;12.31;100.00
56604;BME280;42486;47.478;19.036;2022-09-03T04:07:50;100369.00;;;12.30;100.00
56604;BME280;42486;47.478;19.036;2022-09-03T04:10:52;100367.91;;;12.32;100.00
56604;BME280;42486;47.478;19.036;2022-09-03T04:13:56;100371.03;;;12.26;100.00
56604;BME280;42486;47.478;19.036;2022-09-03T04:16:59;100369.84;;;12.19;100.00
56604;BME280;42486;47.478;19.036;2022-09-03T04:20:02;100376.53;;;12.12;100.00
56604;BME280;42486;47.478;19.036;2022-09-03T04:23:06;100378.06;;;12.15;100.00
56604;BME280;42486;47.478;19.036;2022-09-03T04:26:09;100382.22;;;12.17;100.00
56604;BME280;42486;47.478;19.036;2022-09-03T04:29:13;100378.22;;;12.13;100.00
56604;BME280;42486;47.478;19.036;2022-09-03T04:32:16;100384.38;;;12.12;100.00
56604;BME280;42486;47.478;19.036;2022-09-03T04:35:38;100382.84;;;12.09;100.00
56604;BME280;42486;47.478;19.036;2022-09-03T04:38:44;100384.62;;;12.09;100.00
56604;BME280;42486;47.478;19.036;2022-09-03T04:41:48;100382.84;;;12.09;100.00
56604;BME280;42486;47.478;19.036;2022-09-03T04:44:50;100392.00;;;12.15;100.00
56604;BME280;42486;47.478;19.036;2022-09-03T04:51:03;100389.84;;;12.31;100.00
56604;BME280;42486;47.478;19.036;2022-09-03T04:54:06;100399.34;;;12.32;100.00
56604;BME280;42486;47.478;19.036;2022-09-03T04:57:11;100401.94;;;12.44;100.00
56604;BME280;42486;47.478;19.036;2022-09-03T05:00:15;100403.84;;;12.53;100.00
56604;BME280;42486;47.478;19.036;2022-09-03T05:03:20;100399.63;;;12.62;100.00
56604;BME280;42486;47.478;19.036;2022-09-03T05:06:23;100392.53;;;12.73;100.00
56604;BME280;42486;47.478;19.036;2022-09-03T05:09:27;100393.19;;;12.87;100.00
56604;BME280;42486;47.478;19.036;2022-09-03T05:12:29;100391.72;;;12.94;100.00
56604;BME280;42486;47.478;19.036;2022-09-03T05:15:33;100399.53;;;13.05;100.00
56604;BME280;42486;47.478;19.036;2022-09-03T05:18:36;100397.44;;;13.20;100.00
56604;BME280;42486;47.478;19.036;2022-09-03T05:21:40;100410.56;;;13.41;100.00
56604;BME280;42486;47.478;19.036;2022-09-03T05:24:44;100410.78;;;13.59;100.00
56604;BME280;42486;47.478;19.036;2022-09-03T05:27:47;100409.47;;;13.74;100.00
56604;BME280;42486;47.478;19.036;2022-09-03T05:31:06;100400.41;;;13.88;100.00
56604;BME280;42486;47.478;19.036;2022-09-03T05:34:08;100396.59;;;14.02;100.00
56604;BME280;42486;47.478;19.036;2022-09-03T05:37:19;100402.00;;;14.20;99.66
56604;BME280;42486;47.478;19.036;2022-09-03T05:40:21;100402.59;;;14.33;99.48
56604;BME280;42486;47.478;19.036;2022-09-03T05:43:25;100404.25;;;14.44;98.75
56604;BME280;42486;47.478;19.036;2022-09-03T05:46:29;100397.25;;;14.54;98.14
56604;BME280;42486;47.478;19.036;2022-09-03T05:49:35;100402.78;;;14.70;97.04
56604;BME280;42486;47.478;19.036;2022-09-03T05:52:37;100398.50;;;14.89;95.21
56604;BME280;42486;47.478;19.036;2022-09-03T05:55:41;100403.41;;;15.31;91.39
56604;BME280;42486;47.478;19.036;2022-09-03T05:58:46;100418.84;;;15.73;89.40
56604;BME280;42486;47.478;19.036;2022-09-03T06:01:50;100410.28;;;15.98;86.85
56604;BME280;42486;47.478;19.036;2022-09-03T06:05:00;100415.91;;;16.03;87.48
56604;BME280;42486;47.478;19.036;2022-09-03T06:08:04;100417.50;;;15.96;88.21
56604;BME280;42486;47.478;19.036;2022-09-03T06:11:08;100413.94;;;16.15;85.21
56604;BME280;42486;47.478;19.036;2022-09-03T06:14:12;100410.72;;;16.39;84.03
56604;BME280;42486;47.478;19.036;2022-09-03T06:17:14;100415.84;;;16.23;82.51
56604;BME280;42486;47.478;19.036;2022-09-03T06:20:18;100408.69;;;16.33;83.20
56604;BME280;42486;47.478;19.036;2022-09-03T06:23:23;100412.72;;;16.73;81.09
56604;BME280;42486;47.478;19.036;2022-09-03T06:26:26;100410.37;;;17.06;79.82
56604;BME280;42486;47.478;19.036;2022-09-03T06:29:30;100414.09;;;17.47;79.57
56604;BME280;42486;47.478;19.036;2022-09-03T06:32:33;100412.22;;;17.31;75.82
56604;BME280;42486;47.478;19.036;2022-09-03T06:35:36;100407.56;;;17.07;76.46
56604;BME280;42486;47.478;19.036;2022-09-03T06:38:46;100407.22;;;17.28;75.06
56604;BME280;42486;47.478;19.036;2022-09-03T06:41:49;100393.63;;;17.49;75.24
56604;BME280;42486;47.478;19.036;2022-09-03T06:44:53;100406.00;;;17.75;73.36
56604;BME280;42486;47.478;19.036;2022-09-03T06:47:56;100403.09;;;18.37;70.94
56604;BME280;42486;47.478;19.036;2022-09-03T06:51:02;100402.59;;;20.35;65.27
56604;BME280;42486;47.478;19.036;2022-09-03T06:54:07;100407.47;;;24.57;48.87
56604;BME280;42486;47.478;19.036;2022-09-03T06:57:10;100408.69;;;28.07;39.31
56604;BME280;42486;47.478;19.036;2022-09-03T07:00:12;100415.72;;;29.74;35.20
56604;BME280;42486;47.478;19.036;2022-09-03T07:03:15;100428.31;;;32.00;31.73
56604;BME280;42486;47.478;19.036;2022-09-03T07:06:23;100424.00;;;32.85;29.01
56604;BME280;42486;47.478;19.036;2022-09-03T07:09:29;100424.66;;;33.45;27.75
56604;BME280;42486;47.478;19.036;2022-09-03T07:12:33;100431.81;;;33.14;28.40
56604;BME280;42486;47.478;19.036;2022-09-03T07:15:39;100427.13;;;33.47;28.47
56604;BME280;42486;47.478;19.036;2022-09-03T07:18:44;100431.25;;;34.38;27.25
56604;BME280;42486;47.478;19.036;2022-09-03T07:21:50;100433.47;;;34.77;25.45
56604;BME280;42486;47.478;19.036;2022-09-03T07:24:55;100428.28;;;34.34;26.49
56604;BME280;42486;47.478;19.036;2022-09-03T07:27:58;100431.53;;;34.41;25.44
56604;BME280;42486;47.478;19.036;2022-09-03T07:31:07;100432.03;;;34.13;26.21
56604;BME280;42486;47.478;19.036;2022-09-03T07:34:13;100432.94;;;33.71;26.64
56604;BME280;42486;47.478;19.036;2022-09-03T07:37:18;100425.19;;;31.30;30.38
56604;BME280;42486;47.478;19.036;2022-09-03T07:40:20;100410.56;;;27.70;36.82
56604;BME280;42486;47.478;19.036;2022-09-03T07:43:22;100410.37;;;25.29;43.59
56604;BME280;42486;47.478;19.036;2022-09-03T07:46:25;100410.31;;;23.88;45.67
56604;BME280;42486;47.478;19.036;2022-09-03T07:49:28;100424.97;;;23.07;49.11
56604;BME280;42486;47.478;19.036;2022-09-03T07:52:30;100422.19;;;22.73;53.07
56604;BME280;42486;47.478;19.036;2022-09-03T07:55:33;100419.78;;;22.20;53.02
56604;BME280;42486;47.478;19.036;2022-09-03T07:58:36;100418.53;;;21.86;53.45
56604;BME280;42486;47.478;19.036;2022-09-03T08:01:42;100419.19;;;21.44;54.90
56604;BME280;42486;47.478;19.036;2022-09-03T08:04:45;100419.78;;;21.31;54.50
56604;BME280;42486;47.478;19.036;2022-09-03T08:07:49;100421.62;;;21.30;55.06
56604;BME280;42486;47.478;19.036;2022-09-03T08:10:52;100416.34;;;21.45;55.74
56604;BME280;42486;47.478;19.036;2022-09-03T08:13:55;100427.25;;;21.50;55.70
56604;BME280;42486;47.478;19.036;2022-09-03T08:17:04;100416.63;;;21.50;56.17
56604;BME280;42486;47.478;19.036;2022-09-03T08:20:13;100415.34;;;21.46;54.42
56604;BME280;42486;47.478;19.036;2022-09-03T08:23:15;100416.16;;;21.47;56.68
56604;BME280;42486;47.478;19.036;2022-09-03T08:26:20;100417.91;;;21.69;56.91
56604;BME280;42486;47.478;19.036;2022-09-03T08:29:22;100421.75;;;21.82;55.74
56604;BME280;42486;47.478;19.036;2022-09-03T08:32:30;100417.41;;;21.36;53.64
56604;BME280;42486;47.478;19.036;2022-09-03T08:35:39;100412.12;;;21.51;55.57
56604;BME280;42486;47.478;19.036;2022-09-03T08:38:43;100420.47;;;21.77;53.42
56604;BME280;42486;47.478;19.036;2022-09-03T08:44:55;100421.38;;;21.85;53.49
56604;BME280;42486;47.478;19.036;2022-09-03T08:51:03;100418.16;;;22.19;53.20
56604;BME280;42486;47.478;19.036;2022-09-03T08:54:10;100419.31;;;22.16;51.06
56604;BME280;42486;47.478;19.036;2022-09-03T08:57:14;100425.84;;;22.14;52.87
56604;BME280;42486;47.478;19.036;2022-09-03T09:00:20;100418.94;;;22.05;51.82
56604;BME280;42486;47.478;19.036;2022-09-03T09:09:55;100412.44;;;22.22;51.14
56604;BME280;42486;47.478;19.036;2022-09-03T09:13:04;100406.94;;;22.24;51.10
56604;BME280;42486;47.478;19.036;2022-09-03T09:22:29;100398.00;;;22.31;50.87
56604;BME280;42486;47.478;19.036;2022-09-03T09:25:40;100403.47;;;22.08;51.70
56604;BME280;42486;47.478;19.036;2022-09-03T09:28:54;100395.16;;;22.33;52.67
56604;BME280;42486;47.478;19.036;2022-09-03T09:31:58;100400.94;;;22.58;52.44
56604;BME280;42486;47.478;19.036;2022-09-03T09:35:00;100391.25;;;22.72;51.77
56604;BME280;42486;47.478;19.036;2022-09-03T09:38:06;100392.87;;;22.73;50.39
56604;BME280;42486;47.478;19.036;2022-09-03T09:41:19;100390.84;;;22.75;52.14
56604;BME280;42486;47.478;19.036;2022-09-03T09:44:30;100386.72;;;22.72;48.91
56604;BME280;42486;47.478;19.036;2022-09-03T09:47:38;100396.22;;;22.81;49.17
56604;BME280;42486;47.478;19.036;2022-09-03T09:50:41;100391.00;;;22.95;48.82
56604;BME280;42486;47.478;19.036;2022-09-03T09:53:47;100393.06;;;23.14;48.12
56604;BME280;42486;47.478;19.036;2022-09-03T09:57:03;100403.41;;;23.30;47.63
56604;BME280;42486;47.478;19.036;2022-09-03T10:00:07;100395.03;;;23.34;47.52
56604;BME280;42486;47.478;19.036;2022-09-03T10:03:19;100395.44;;;23.37;46.54
56604;BME280;42486;47.478;19.036;2022-09-03T10:06:25;100392.75;;;23.30;46.35
56604;BME280;42486;47.478;19.036;2022-09-03T10:13:26;100390.31;;;23.36;45.88
56604;BME280;42486;47.478;19.036;2022-09-03T10:16:36;100390.47;;;23.27;47.37
56604;BME280;42486;47.478;19.036;2022-09-03T10:22:45;100388.19;;;23.59;45.28
56604;BME280;42486;47.478;19.036;2022-09-03T10:26:03;100391.62;;;23.81;47.13
56604;BME280;42486;47.478;19.036;2022-09-03T10:29:11;100384.19;;;23.77;46.20
56604;BME280;42486;47.478;19.036;2022-09-03T10:32:26;100387.00;;;24.10;47.34
56604;BME280;42486;47.478;19.036;2022-09-03T10:35:42;100385.59;;;24.27;47.91
56604;BME280;42486;47.478;19.036;2022-09-03T10:38:50;100394.69;;;24.46;46.79
56604;BME280;42486;47.478;19.036;2022-09-03T10:51:34;100375.41;;;24.51;44.70
56604;BME280;42486;47.478;19.036;2022-09-03T10:54:54;100376.25;;;24.58;42.88
56604;BME280;42486;47.478;19.036;2022-09-03T11:01:09;100369.03;;;24.52;39.91
56604;BME280;42486;47.478;19.036;2022-09-03T11:04:17;100363.34;;;24.07;41.40
56604;BME280;42486;47.478;19.036;2022-09-03T11:07:32;100366.97;;;24.54;39.60
56604;BME280;42486;47.478;19.036;2022-09-03T11:10:49;100362.87;;;24.45;40.41
56604;BME280;42486;47.478;19.036;2022-09-03T11:14:14;100359.81;;;24.74;41.94
56604;BME280;42486;47.478;19.036;2022-09-03T11:17:24;100357.53;;;24.91;43.67
56604;BME280;42486;47.478;19.036;2022-09-03T11:20:28;100355.44;;;25.13;44.35
56604;BME280;42486;47.478;19.036;2022-09-03T11:23:33;100357.91;;;25.35;42.54
56604;BME280;42486;47.478;19.036;2022-09-03T11:26:43;100367.34;;;25.44;42.20
56604;BME280;42486;47.478;19.036;2022-09-03T11:29:52;100367.97;;;25.39;41.47
56604;BME280;42486;47.478;19.036;2022-09-03T11:33:00;100369.03;;;25.12;40.94
56604;BME280;42486;47.478;19.036;2022-09-03T11:36:09;100360.00;;;23.85;43.90
56604;BME280;42486;47.478;19.036;2022-09-03T11:42:37;100361.12;;;24.17;43.66
56604;BME280;42486;47.478;19.036;2022-09-03T11:45:43;100355.22;;;24.28;42.92
56604;BME280;42486;47.478;19.036;2022-09-03T11:48:46;100353.72;;;24.06;43.24
56604;BME280;42486;47.478;19.036;2022-09-03T11:51:54;100357.31;;;24.53;41.41
56604;BME280;42486;47.478;19.036;2022-09-03T11:55:00;100362.25;;;24.89;42.12
56604;BME280;42486;47.478;19.036;2022-09-03T11:58:24;100352.53;;;24.15;41.26
56604;BME280;42486;47.478;19.036;2022-09-03T12:01:29;100357.16;;;23.93;41.69
56604;BME280;42486;47.478;19.036;2022-09-03T12:07:44;100364.72;;;24.91;41.32
56604;BME280;42486;47.478;19.036;2022-09-03T12:11:15;100367.38;;;25.31;39.65
56604;BME280;42486;47.478;19.036;2022-09-03T12:14:31;100362.03;;;25.31;40.22
56604;BME280;42486;47.478;19.036;2022-09-03T12:21:16;100368.28;;;25.69;39.10
56604;BME280;42486;47.478;19.036;2022-09-03T12:24:19;100358.78;;;25.80;39.67
56604;BME280;42486;47.478;19.036;2022-09-03T12:27:25;100360.00;;;25.84;37.29
56604;BME280;42486;47.478;19.036;2022-09-03T12:30:28;100361.66;;;25.79;37.71
56604;BME280;42486;47.478;19.036;2022-09-03T12:33:32;100351.66;;;25.54;37.88
56604;BME280;42486;47.478;19.036;2022-09-03T12:39:39;100354.66;;;25.19;39.73
56604;BME280;42486;47.478;19.036;2022-09-03T12:43:10;100342.06;;;25.13;39.84
56604;BME280;42486;47.478;19.036;2022-09-03T12:46:33;100340.81;;;25.36;38.75
56604;BME280;42486;47.478;19.036;2022-09-03T12:49:41;100346.06;;;25.62;39.59
56604;BME280;42486;47.478;19.036;2022-09-03T12:52:47;100341.03;;;25.92;38.74
56604;BME280;42486;47.478;19.036;2022-09-03T12:55:52;100343.62;;;26.06;37.74
56604;BME280;42486;47.478;19.036;2022-09-03T12:59:11;100354.84;;;25.83;37.38
56604;BME280;42486;47.478;19.036;2022-09-03T13:02:16;100348.28;;;25.79;37.87
56604;BME280;42486;47.478;19.036;2022-09-03T13:05:25;100349.28;;;25.91;36.85
56604;BME280;42486;47.478;19.036;2022-09-03T13:08:34;100342.28;;;25.90;37.41
56604;BME280;42486;47.478;19.036;2022-09-03T13:11:43;100353.62;;;25.79;38.65
56604;BME280;42486;47.478;19.036;2022-09-03T13:14:47;100343.31;;;25.31;39.32
56604;BME280;42486;47.478;19.036;2022-09-03T13:21:14;100335.37;;;25.56;40.85
56604;BME280;42486;47.478;19.036;2022-09-03T13:24:27;100337.78;;;25.84;38.93
56604;BME280;42486;47.478;19.036;2022-09-03T13:30:57;100328.44;;;25.93;39.46
56604;BME280;42486;47.478;19.036;2022-09-03T13:34:06;100324.78;;;25.87;37.91
56604;BME280;42486;47.478;19.036;2022-09-03T13:37:12;100328.63;;;25.98;37.87
56604;BME280;42486;47.478;19.036;2022-09-03T13:40:31;100324.75;;;25.94;37.36
56604;BME280;42486;47.478;19.036;2022-09-03T13:43:38;100322.31;;;25.79;37.84
56604;BME280;42486;47.478;19.036;2022-09-03T13:59:49;100312.03;;;25.31;39.09
56604;BME280;42486;47.478;19.036;2022-09-03T14:06:10;100313.84;;;25.44;37.92
56604;BME280;42486;47.478;19.036;2022-09-03T14:25:55;100303.62;;;25.14;38.65
56604;BME280;42486;47.478;19.036;2022-09-03T14:29:03;100296.47;;;24.88;39.50
56604;BME280;42486;47.478;19.036;2022-09-03T14:38:25;100297.72;;;24.92;38.24
56604;BME280;42486;47.478;19.036;2022-09-03T14:45:02;100299.97;;;24.75;38.68
56604;BME280;42486;47.478;19.036;2022-09-03T15:01:17;100288.63;;;24.87;37.90
56604;BME280;42486;47.478;19.036;2022-09-03T15:08:00;100290.31;;;24.68;39.05
56604;BME280;42486;47.478;19.036;2022-09-03T15:11:09;100293.63;;;24.56;39.20
56604;BME280;42486;47.478;19.036;2022-09-03T15:14:17;100292.38;;;24.59;39.90
56604;BME280;42486;47.478;19.036;2022-09-03T15:20:49;100302.22;;;24.32;40.71
56604;BME280;42486;47.478;19.036;2022-09-03T15:23:57;100294.00;;;24.27;40.49
56604;BME280;42486;47.478;19.036;2022-09-03T15:30:18;100298.25;;;24.01;42.25
56604;BME280;42486;47.478;19.036;2022-09-03T15:36:33;100294.91;;;23.72;43.21
56604;BME280;42486;47.478;19.036;2022-09-03T15:39:42;100291.72;;;23.49;42.15
56604;BME280;42486;47.478;19.036;2022-09-03T15:43:38;100289.81;;;23.43;44.75
56604;BME280;42486;47.478;19.036;2022-09-03T15:53:01;100284.25;;;23.38;44.29
56604;BME280;42486;47.478;19.036;2022-09-03T15:59:18;100292.84;;;23.26;44.27
56604;BME280;42486;47.478;19.036;2022-09-03T16:02:29;100284.84;;;23.26;44.07
56604;BME280;42486;47.478;19.036;2022-09-03T16:05:43;100278.84;;;23.18;45.09
56604;BME280;42486;47.478;19.036;2022-09-03T16:12:00;100288.75;;;22.96;45.04
56604;BME280;42486;47.478;19.036;2022-09-03T16:15:12;100276.81;;;22.92;44.77
56604;BME280;42486;47.478;19.036;2022-09-03T16:18:31;100276.09;;;22.76;45.15
56604;BME280;42486;47.478;19.036;2022-09-03T16:21:41;100273.66;;;22.75;46.21
56604;BME280;42486;47.478;19.036;2022-09-03T16:25:06;100277.28;;;22.67;45.50
56604;BME280;42486;47.478;19.036;2022-09-03T16:31:28;100287.97;;;22.46;46.38
56604;BME280;42486;47.478;19.036;2022-09-03T16:38:01;100293.31;;;22.24;46.97
56604;BME280;42486;47.478;19.036;2022-09-03T16:54:04;100296.22;;;21.71;50.22
56604;BME280;42486;47.478;19.036;2022-09-03T17:00:16;100289.34;;;21.32;50.48
56604;BME280;42486;47.478;19.036;2022-09-03T17:06:55;100298.63;;;21.07;51.22
56604;BME280;42486;47.478;19.036;2022-09-03T17:26:20;100304.41;;;20.35;55.78
56604;BME280;42486;47.478;19.036;2022-09-03T17:42:26;100319.72;;;19.70;60.81
56604;BME280;42486;47.478;19.036;2022-09-03T17:51:57;100334.09;;;19.36;62.21
56604;BME280;42486;47.478;19.036;2022-09-03T17:58:36;100337.28;;;19.16;65.02
56604;BME280;42486;47.478;19.036;2022-09-03T18:01:49;100333.66;;;19.00;66.14
56604;BME280;42486;47.478;19.036;2022-09-03T18:11:10;100343.28;;;18.77;68.22
56604;BME280;42486;47.478;19.036;2022-09-03T18:17:26;100360.97;;;18.60;69.39
56604;BME280;42486;47.478;19.036;2022-09-03T18:20:31;100359.28;;;18.51;70.91
56604;BME280;42486;47.478;19.036;2022-09-03T18:27:59;100364.56;;;18.34;71.92
56604;BME280;42486;47.478;19.036;2022-09-03T18:31:27;100371.47;;;18.27;72.73
56604;BME280;42486;47.478;19.036;2022-09-03T18:34:48;100380.06;;;18.21;73.19
56604;BME280;42486;47.478;19.036;2022-09-03T18:38:17;100377.06;;;18.08;74.34
56604;BME280;42486;47.478;19.036;2022-09-03T18:45:25;100377.34;;;17.88;76.18
56604;BME280;42486;47.478;19.036;2022-09-03T18:49:10;100378.50;;;17.86;76.46
56604;BME280;42486;47.478;19.036;2022-09-03T18:52:53;100378.56;;;17.76;77.73
56604;BME280;42486;47.478;19.036;2022-09-03T18:56:34;100378.03;;;17.64;78.52
56604;BME280;42486;47.478;19.036;2022-09-03T19:00:06;100376.84;;;17.58;78.08
56604;BME280;42486;47.478;19.036;2022-09-03T19:07:00;100378.06;;;17.38;79.97
56604;BME280;42486;47.478;19.036;2022-09-03T19:10:24;100381.03;;;17.35;79.83
56604;BME280;42486;47.478;19.036;2022-09-03T19:13:46;100381.12;;;17.25;79.74
56604;BME280;42486;47.478;19.036;2022-09-03T19:17:19;100388.03;;;17.18;81.13
56604;BME280;42486;47.478;19.036;2022-09-03T19:20:50;100386.03;;;17.20;80.82
56604;BME280;42486;47.478;19.036;2022-09-03T19:24:16;100378.44;;;17.17;81.28
56604;BME280;42486;47.478;19.036;2022-09-03T19:34:48;100379.13;;;17.01;83.27
56604;BME280;42486;47.478;19.036;2022-09-03T19:41:56;100384.38;;;16.93;83.57
56604;BME280;42486;47.478;19.036;2022-09-03T19:45:29;100383.47;;;16.84;84.45
56604;BME280;42486;47.478;19.036;2022-09-03T19:48:59;100380.84;;;16.84;84.20
56604;BME280;42486;47.478;19.036;2022-09-03T19:52:32;100389.87;;;16.82;84.69
56604;BME280;42486;47.478;19.036;2022-09-03T19:55:56;100395.75;;;16.76;84.96
56604;BME280;42486;47.478;19.036;2022-09-03T19:59:19;100399.53;;;16.73;84.71
56604;BME280;42486;47.478;19.036;2022-09-03T20:02:41;100398.00;;;16.70;85.66
56604;BME280;42486;47.478;19.036;2022-09-03T20:06:02;100412.34;;;16.68;84.82
56604;BME280;42486;47.478;19.036;2022-09-03T20:09:27;100401.22;;;16.64;85.59
56604;BME280;42486;47.478;19.036;2022-09-03T20:16:06;100422.81;;;16.60;86.99
56604;BME280;42486;47.478;19.036;2022-09-03T20:22:22;100421.22;;;16.49;86.89
56604;BME280;42486;47.478;19.036;2022-09-03T20:25:35;100423.37;;;16.54;87.33
56604;BME280;42486;47.478;19.036;2022-09-03T20:35:00;100429.19;;;16.39;88.22
56604;BME280;42486;47.478;19.036;2022-09-03T20:38:12;100427.81;;;16.35;88.46
56604;BME280;42486;47.478;19.036;2022-09-03T20:48:11;100445.06;;;16.29;88.97
56604;BME280;42486;47.478;19.036;2022-09-03T20:51:19;100444.37;;;16.27;89.31
56604;BME280;42486;47.478;19.036;2022-09-03T20:54:28;100442.62;;;16.18;89.88
56604;BME280;42486;47.478;19.036;2022-09-03T21:01:08;100446.69;;;16.13;89.46
56604;BME280;42486;47.478;19.036;2022-09-03T21:04:14;100452.78;;;16.13;88.63
56604;BME280;42486;47.478;19.036;2022-09-03T21:10:52;100457.66;;;16.08;89.69
56604;BME280;42486;47.478;19.036;2022-09-03T21:14:04;100455.03;;;16.08;90.18
56604;BME280;42486;47.478;19.036;2022-09-03T21:17:25;100453.69;;;16.04;90.75
56604;BME280;42486;47.478;19.036;2022-09-03T21:23:43;100454.53;;;15.95;90.77
56604;BME280;42486;47.478;19.036;2022-09-03T21:26:49;100461.75;;;15.93;91.56